sim
Sign-in with your pilot id or email,
or register
Callsign
Passwort

Schedule Details

Flight Number: OEO7689
Departure: Dallas Fort Worth International Airport (KDFW) at 22:10
Arrival: Munich Airport (EDDM) at 08:15

Weather Information
Getting current METAR information for KDFW 212353Z 06010KT 5SM RA BR BKN011 OVC016 19/18 A3007 RMK AO2 DZE22212254B2208E2223B03E10RAB22212254E22212255B2223B10 SLP177 P0003 60003 T01940183 10244 20194 $
Getting current METAR information for EDDM 220020Z VRB01KT 7000 3000NE R08L/0450N BCFG NSC 10/09 Q1015 NOSIG

Schedule Frequency

Route Map